Terminal Aerodrome Forecast
Issued by NWS

Home | Current Version | Previous Version | Text Only | Print | Product List | Glossary On
Versions: 1 2 3 4 5 6 7 8 9 10 11 12 13 14 15 16 17 18 19 20 21 22 23 24 25
345
FTUS41 KBUF 090900 AAB
TAFJHW
TAF AMD
KJHW 090900Z 0909/1006 23004KT 3SM -SN OVC004
      TEMPO 0910/0914 6SM -SN SCT004 OVC015
     FM091400 22008KT P6SM SCT008 OVC015
     FM091800 23010KT P6SM VCSH OVC025
     FM100000 24008KT P6SM BKN015
      AMD LTD TO CLD VIS AND WIND=

USA.gov is the U.S. government's official web portal to all federal, state and local government web resources and services.